createdAt,value
2024-05-09T00:00:00.560Z,9.74
2024-05-09T00:05:00.939Z,9.69
2024-05-09T00:10:00.543Z,9.62
2024-05-09T00:15:00.542Z,9.47
2024-05-09T00:20:00.736Z,9.3
2024-05-09T00:25:00.581Z,9.17
2024-05-09T00:30:00.585Z,9.08
2024-05-09T00:35:00.825Z,8.96
2024-05-09T00:40:00.596Z,8.79
2024-05-09T00:45:00.528Z,8.66
2024-05-09T00:50:00.706Z,8.54
2024-05-09T00:55:00.493Z,8.42
2024-05-09T01:00:00.618Z,8.34
2024-05-09T01:05:01.044Z,8.26
2024-05-09T01:10:00.523Z,8.22
2024-05-09T01:15:00.507Z,8.17
2024-05-09T01:20:00.914Z,8.13
2024-05-09T01:25:00.582Z,8.07
2024-05-09T01:30:00.559Z,8.02
2024-05-09T01:35:00.848Z,8.02
2024-05-09T01:40:00.570Z,8.02
2024-05-09T01:45:00.562Z,8
2024-05-09T01:50:01.038Z,7.89
2024-05-09T01:55:07.039Z,7.8
2024-05-09T02:00:00.576Z,7.66
2024-05-09T02:05:01.073Z,7.51
2024-05-09T02:10:00.519Z,7.41
2024-05-09T02:20:00.874Z,7.11
2024-05-09T02:25:00.537Z,6.97
2024-05-09T02:30:00.718Z,6.86
2024-05-09T02:35:00.802Z,6.74
2024-05-09T02:40:00.518Z,6.63
2024-05-09T02:45:00.499Z,6.56
2024-05-09T02:50:00.746Z,6.55
2024-05-09T02:55:00.526Z,6.59
2024-05-09T03:00:00.621Z,6.63
2024-05-09T03:05:00.713Z,6.66
2024-05-09T03:10:00.515Z,6.63
2024-05-09T03:15:00.607Z,6.55
2024-05-09T03:20:00.786Z,6.46
2024-05-09T03:25:00.516Z,6.4
2024-05-09T03:30:00.830Z,6.35
2024-05-09T03:35:00.620Z,6.28
2024-05-09T03:40:00.502Z,6.19
2024-05-09T03:45:00.498Z,6.09
2024-05-09T03:50:00.694Z,6.09
2024-05-09T03:55:00.485Z,6.1
2024-05-09T04:00:00.526Z,6.15
2024-05-09T04:05:00.770Z,6.12
2024-05-09T04:10:00.566Z,6.12
2024-05-09T04:15:00.517Z,6.16
2024-05-09T04:20:01.078Z,6.24
2024-05-09T04:25:00.534Z,6.34
2024-05-09T04:30:00.724Z,6.37
2024-05-09T04:35:00.618Z,6.46
2024-05-09T04:40:00.488Z,6.52
2024-05-09T04:45:00.525Z,6.61
2024-05-09T04:50:00.619Z,6.73
2024-05-09T04:55:00.612Z,6.9
2024-05-09T05:00:00.519Z,7.1
2024-05-09T05:05:01.100Z,7.29
2024-05-09T05:10:00.503Z,7.48
2024-05-09T05:15:00.618Z,7.66
2024-05-09T05:20:01.086Z,7.82
2024-05-09T05:25:00.505Z,7.97
2024-05-09T05:30:00.659Z,8.1
2024-05-09T05:35:00.762Z,8.23
2024-05-09T05:40:00.540Z,8.39
2024-05-09T05:45:00.589Z,8.6
2024-05-09T05:50:01.055Z,8.81
2024-05-09T05:55:00.526Z,8.93
2024-05-09T06:00:00.534Z,9.07
2024-05-09T06:05:01.036Z,9.23
2024-05-09T06:10:00.624Z,9.41
2024-05-09T06:15:00.541Z,9.62
2024-05-09T06:20:00.964Z,10.05
2024-05-09T06:25:00.560Z,10.27
2024-05-09T06:30:00.535Z,10.45
2024-05-09T06:35:00.698Z,10.66
2024-05-09T06:40:00.532Z,11.1
2024-05-09T06:45:00.555Z,11.31
2024-05-09T06:50:00.804Z,11.52
2024-05-09T06:55:00.505Z,11.73
2024-05-09T07:00:01.098Z,11.94
2024-05-09T07:05:01.469Z,12.06
2024-05-09T07:10:00.506Z,12.17
2024-05-09T07:15:00.574Z,12.53
2024-05-09T07:20:01.095Z,12.75
2024-05-09T07:25:00.537Z,13.19
2024-05-09T07:30:00.513Z,13.63
2024-05-09T07:35:00.714Z,13.84
2024-05-09T07:40:00.511Z,14.01
2024-05-09T07:55:01.629Z,14.98
2024-05-09T08:00:00.561Z,15.21
2024-05-09T08:05:01.264Z,15.37
2024-05-09T08:10:00.718Z,15.41
2024-05-09T08:15:00.511Z,15.54
2024-05-09T08:20:05.705Z,15.96
2024-05-09T08:25:00.661Z,16.38
2024-05-09T08:30:00.756Z,16.6
2024-05-09T08:35:00.720Z,16.79
2024-05-09T08:40:00.933Z,17.02
2024-05-09T08:45:00.671Z,17.44
2024-05-09T08:50:00.778Z,17.65
2024-05-09T08:55:00.675Z,18.01
2024-05-09T09:00:00.728Z,18.23
2024-05-09T09:05:01.061Z,18.45
2024-05-09T09:10:00.746Z,18.55
2024-05-09T09:15:00.639Z,18.11
2024-05-09T09:20:01.054Z,18.6
2024-05-09T09:25:00.652Z,19.46
2024-05-09T09:30:00.610Z,20.57
2024-05-09T09:35:01.080Z,20.55
2024-05-09T09:40:00.642Z,20.33
2024-05-09T09:45:06.158Z,20.77
2024-05-09T09:50:00.530Z,20.47
2024-05-09T09:55:00.823Z,19.82
2024-05-09T10:00:00.537Z,19.82
2024-05-09T10:05:01.031Z,20.91
2024-05-09T10:10:00.845Z,20.92
2024-05-09T10:15:00.555Z,20.48
2024-05-09T10:20:00.783Z,19.82
2024-05-09T10:25:05.439Z,19.59
2024-05-09T10:30:00.556Z,20.99
2024-05-09T10:35:01.088Z,20.84
2024-05-09T10:40:00.755Z,20.4
2024-05-09T10:45:00.498Z,21.3
2024-05-09T10:50:00.866Z,22.43
2024-05-09T10:55:05.848Z,22.65
2024-05-09T11:00:00.651Z,23.8
2024-05-09T11:05:01.132Z,22.83
2024-05-09T11:10:00.748Z,21.91
2024-05-09T11:15:00.582Z,22.8
2024-05-09T11:20:00.974Z,23.47
2024-05-09T11:25:00.637Z,24.36
2024-05-09T11:30:00.539Z,23.08
2024-05-09T11:35:00.519Z,21.91
2024-05-09T11:40:00.802Z,22.14
2024-05-09T11:45:00.584Z,22.8
2024-05-09T11:50:01.036Z,23.26
2024-05-09T11:55:00.755Z,23.94
2024-05-09T12:00:00.558Z,24.04
2024-05-09T12:05:01.090Z,23.07
2024-05-09T12:10:00.991Z,22.15
2024-05-09T12:15:00.789Z,22.39
2024-05-09T12:20:00.800Z,22.61
2024-05-09T12:25:01.002Z,23.04
2024-05-09T12:30:00.831Z,23.41
2024-05-09T12:35:00.849Z,23.85
2024-05-09T12:40:00.950Z,23.85
2024-05-09T12:45:00.828Z,24.28
2024-05-09T12:50:00.949Z,24.44
2024-05-09T12:55:01.107Z,23.21
2024-05-09T13:00:00.711Z,22.49
2024-05-09T13:05:01.226Z,22.63
2024-05-09T13:10:01.221Z,22.21
2024-05-09T13:15:00.788Z,22.42
2024-05-09T13:20:00.804Z,22.59
2024-05-09T13:25:00.919Z,22.88
2024-05-09T13:30:00.813Z,21.95
2024-05-09T13:35:00.805Z,22.43
2024-05-09T13:40:01.010Z,23.39
2024-05-09T13:45:00.708Z,24.09
2024-05-09T13:50:00.540Z,24.09
2024-05-09T13:55:00.682Z,23.18
2024-05-09T14:00:00.782Z,24.28
2024-05-09T14:05:01.181Z,25.21
2024-05-09T14:10:00.832Z,25.43
2024-05-09T14:15:00.580Z,25.63
2024-05-09T14:20:00.522Z,25.39
2024-05-09T14:25:00.702Z,25.18
2024-05-09T14:30:00.604Z,25.15
2024-05-09T14:35:00.797Z,25.77
2024-05-09T14:40:00.773Z,25.88
2024-05-09T14:45:00.524Z,25.71
2024-05-09T14:50:00.603Z,26.15
2024-05-09T14:55:01.592Z,25.49
2024-05-09T15:00:00.586Z,25.7
2024-05-09T15:05:01.015Z,25.91
2024-05-09T15:10:00.719Z,25.34
2024-05-09T15:15:00.553Z,24.91
2024-05-09T15:20:00.924Z,24.69
2024-05-09T15:25:00.655Z,24.74
2024-05-09T15:30:00.564Z,25.18
2024-05-09T15:35:00.496Z,25.31
2024-05-09T15:40:00.735Z,25.21
2024-05-09T15:45:00.520Z,25.3
2024-05-09T15:50:00.989Z,24.85
2024-05-09T15:55:00.764Z,24.95
2024-05-09T16:00:00.776Z,24.85
2024-05-09T16:05:01.041Z,25.1
2024-05-09T16:10:00.861Z,24.88
2024-05-09T16:15:00.521Z,25.3
2024-05-09T16:20:00.674Z,25.29
2024-05-09T16:25:00.712Z,25.06
2024-05-09T16:30:00.538Z,24.63
2024-05-09T16:35:00.785Z,24.19
2024-05-09T16:40:00.873Z,23.96
2024-05-09T16:45:00.729Z,23.51
2024-05-09T16:50:00.626Z,23.33
2024-05-09T16:55:00.800Z,23.31
2024-05-09T17:00:00.514Z,22.88
2024-05-09T17:05:01.301Z,22.67
2024-05-09T17:10:00.860Z,22.62
2024-05-09T17:15:00.512Z,22.52
2024-05-09T17:20:00.573Z,22.73
2024-05-09T17:25:01.039Z,22.63
2024-05-09T17:30:00.530Z,22
2024-05-09T17:35:01.161Z,21.56
2024-05-09T17:40:00.798Z,21.13
2024-05-09T17:45:01.137Z,20.69
2024-05-09T17:50:00.845Z,20.27
2024-05-09T17:55:01.224Z,19.82
2024-05-09T18:00:00.668Z,19.38
2024-05-09T18:05:01.508Z,19.16
2024-05-09T18:10:00.987Z,18.92
2024-05-09T18:15:00.512Z,18.49
2024-05-09T18:20:00.882Z,18.33
2024-05-09T18:25:00.696Z,18.12
2024-05-09T18:30:00.575Z,17.9
2024-05-09T18:35:00.932Z,17.47
2024-05-09T18:40:00.940Z,17.24
2024-05-09T18:45:00.816Z,17.02
2024-05-09T18:50:00.942Z,16.8
2024-05-09T18:55:00.715Z,16.36
2024-05-09T19:00:00.647Z,16.13
2024-05-09T19:05:01.153Z,15.92
2024-05-09T19:10:00.841Z,15.47
2024-05-09T19:15:00.523Z,15.26
2024-05-09T19:20:01.095Z,15.04
2024-05-09T19:25:00.760Z,14.81
2024-05-09T19:30:00.606Z,14.59
2024-05-09T19:35:00.520Z,14.38
2024-05-09T19:40:01.058Z,14.16
2024-05-09T19:45:00.508Z,13.98
2024-05-09T19:50:01.184Z,13.78
2024-05-09T19:55:00.936Z,13.6
2024-05-09T20:00:00.612Z,13.44
2024-05-09T20:05:01.556Z,13.3
2024-05-09T20:10:00.870Z,13.16
2024-05-09T20:15:00.655Z,12.99
2024-05-09T20:20:01.142Z,12.83
2024-05-09T20:25:00.834Z,12.68
2024-05-09T20:30:00.654Z,12.54
2024-05-09T20:35:00.510Z,12.38
2024-05-09T20:40:00.809Z,12.27
2024-05-09T20:45:00.572Z,12.13
2024-05-09T20:50:00.705Z,12.06
2024-05-09T20:55:00.899Z,11.96
2024-05-09T21:00:00.627Z,11.89
2024-05-09T21:05:01.300Z,11.8
2024-05-09T21:10:00.753Z,11.68
2024-05-09T21:15:00.501Z,11.6
2024-05-09T21:20:00.543Z,11.51
2024-05-09T21:25:00.759Z,11.4
2024-05-09T21:30:00.493Z,11.33
2024-05-09T21:35:00.494Z,11.22
2024-05-09T21:40:01.098Z,11.15
2024-05-09T21:45:00.558Z,11.03
2024-05-09T21:50:00.557Z,10.96
2024-05-09T21:55:00.802Z,10.93
2024-05-09T22:00:00.518Z,10.88
2024-05-09T22:05:01.224Z,10.79
2024-05-09T22:10:01.178Z,10.7
2024-05-09T22:15:00.575Z,10.63
2024-05-09T22:20:00.571Z,10.57
2024-05-09T22:25:00.845Z,10.48
2024-05-09T22:30:00.561Z,10.46
2024-05-09T22:35:01.125Z,10.43
2024-05-09T22:40:06.627Z,10.41
2024-05-09T22:45:00.616Z,10.34
2024-05-09T22:50:00.497Z,10.28
2024-05-09T22:55:00.648Z,10.21
2024-05-09T23:00:00.631Z,10.09
2024-05-09T23:05:01.054Z,9.97
2024-05-09T23:10:00.987Z,9.87
2024-05-09T23:15:00.600Z,9.81
2024-05-09T23:20:00.637Z,9.73
2024-05-09T23:25:00.744Z,9.63
2024-05-09T23:30:00.536Z,9.55
2024-05-09T23:35:00.855Z,9.46
2024-05-09T23:40:00.892Z,9.35
2024-05-09T23:45:00.579Z,9.28
2024-05-09T23:50:00.523Z,9.18
2024-05-09T23:55:00.752Z,9.1
